Aérodrome :
LOGIN :

S'inscrire | Disclaimer

   EN    FR    IT 

 










Légende :    VFR   VFR Marginal   IFR   IFR Intensif   IFR Très Intensif
Visi : 
Plafond : 
>= 8 km
>= 3000ft
5 à 8 km
1000 à 3000 ft
1500m à 5 km
500 à 1000 ft
800 à 1500m
200 à 500 ft
< 800m
< 200 ft
Symboles :   Orages  Brouillard  Fortes neiges  Fortes précipitations  Vent > 20 kt
SIGMETs :   Divers  Orages  Givrage  Turbulence  Onde Orograph.  Cendres Volcan.







- Altitude de l'aérodrome : 36 ft
- Code IATA : LTQ
- Voir les cartes d'approche


LFAT - Le Touquet

DERNIER METAR :
  • 210630Z AUTO VRB01KT 2100 BR VV/// 11/11 Q1016 BECMG 3000 BR OVC003

METARs EXPIRÉS :
  • 210600Z AUTO VRB02KT 0900 0700 R13/1200D FG VV/// 09/09 Q1016 BECMG 3000 BR OVC003
  • 210530Z AUTO VRB02KT 0450 R13/0650U FG VV/// 08/08 Q1016 BECMG 3000 BR OVC003
  • 210500Z AUTO 15003KT 0250 0200 R13/0300N FG VV/// 08/08 Q1016
  • 210430Z AUTO 16002KT 0250 0200 R13/0200N FG VV/// 08/08 Q1015
  • 210400Z AUTO 15003KT 0250 0200 R13/0225N FG VV/// 08/08 Q1015

TAF TAF LFAT
Valide du 21 à 06h jusqu'au 21 à 15h UTC


210500Z 2106/2115 VRB02KT 0200 FG VV///
BECMG 2107/2109 3000 BR OVC003
BECMG 2109/2112 31010KT 9999 NSW SCT030
ATIS : +33 3 21 06 62 84
Pas de NOTAMs connus pour ce terrain.



MET'MAP, la Météo Aéronautique d'un coup d'oeil ! - Copyright ORBIFLY Décembre 2007 - Disclaimer

ORBIFLY MET'MAP TEAM :

Programmation & Développement : Alexandra Zaïnal
Conception & Développement : Baudouin d'Aumeries
Co-Programmation & Développement : Marc-Olivier Méhu
Soutien technique & logistique : Manuel Goepfert

Contact : metmap@orbifly.com




SOURCES & CREDITS :

   NOAA